createdAt,value
2018-12-27T00:00:03.126Z,1017.28
2018-12-27T00:01:03.075Z,1017.28
2018-12-27T00:02:03.021Z,1017.26
2018-12-27T00:03:02.991Z,1017.25
2018-12-27T00:04:02.910Z,1017.22
2018-12-27T00:05:02.850Z,1017.26
2018-12-27T00:06:02.789Z,1017.25
2018-12-27T00:07:02.739Z,1017.23
2018-12-27T00:08:02.711Z,1017.22
2018-12-27T00:09:02.628Z,1017.23
2018-12-27T00:10:02.568Z,1017.23
2018-12-27T00:11:02.513Z,1017.22
2018-12-27T00:12:02.457Z,1017.23
2018-12-27T00:13:02.421Z,1017.23
2018-12-27T00:14:02.342Z,1017.23
2018-12-27T00:15:02.291Z,1017.22
2018-12-27T00:16:02.231Z,1017.23
2018-12-27T00:17:02.179Z,1017.20
2018-12-27T00:18:02.156Z,1017.20
2018-12-27T00:19:02.086Z,1017.21
2018-12-27T00:20:02.003Z,1017.22
2018-12-27T00:21:01.950Z,1017.18
2018-12-27T00:22:01.902Z,1017.17
2018-12-27T00:23:01.841Z,1017.15
2018-12-27T00:24:01.815Z,1017.16
2018-12-27T00:25:01.725Z,1017.17
2018-12-27T00:26:01.669Z,1017.13
2018-12-27T00:27:01.614Z,1017.14
2018-12-27T00:28:01.560Z,1017.13
2018-12-27T00:29:01.525Z,1017.14
2018-12-27T00:30:01.446Z,1017.15
2018-12-27T00:31:01.389Z,1017.11
2018-12-27T00:32:01.332Z,1017.11
2018-12-27T00:33:03.197Z,1017.12
2018-12-27T00:34:01.246Z,1017.07
2018-12-27T00:35:01.164Z,1017.02
2018-12-27T00:36:01.107Z,1017.06
2018-12-27T00:37:01.056Z,1016.99
2018-12-27T00:38:00.996Z,1016.99
2018-12-27T00:39:00.962Z,1016.99
2018-12-27T00:40:00.892Z,1016.98
2018-12-27T00:41:00.822Z,1016.97
2018-12-27T00:42:00.777Z,1016.95
2018-12-27T00:43:00.719Z,1016.93
2018-12-27T00:44:00.685Z,1016.93
2018-12-27T00:45:00.602Z,1016.92
2018-12-27T00:46:00.541Z,1016.93
2018-12-27T00:47:00.489Z,1016.93
2018-12-27T00:48:00.436Z,1016.91
2018-12-27T00:49:00.394Z,1016.93
2018-12-27T00:50:00.316Z,1016.95
2018-12-27T00:51:00.261Z,1016.91
2018-12-27T00:52:00.205Z,1016.90
2018-12-27T00:53:00.151Z,1016.90
2018-12-27T00:54:00.117Z,1016.87
2018-12-27T00:55:00.036Z,1016.86
2018-12-27T00:55:59.980Z,1016.87
2018-12-27T00:56:59.925Z,1016.86
2018-12-27T00:57:59.865Z,1016.84
2018-12-27T00:58:59.841Z,1016.83
2018-12-27T00:59:59.754Z,1016.79
2018-12-27T01:00:59.697Z,1016.78
2018-12-27T01:01:59.644Z,1016.81
2018-12-27T01:02:59.588Z,1016.81
2018-12-27T01:03:59.555Z,1016.76
2018-12-27T01:04:59.473Z,1016.80
2018-12-27T01:05:59.413Z,1016.79
2018-12-27T01:06:59.358Z,1016.75
2018-12-27T01:07:59.296Z,1016.80
2018-12-27T01:08:59.272Z,1016.80
2018-12-27T01:09:59.188Z,1016.78
2018-12-27T01:10:59.128Z,1016.80
2018-12-27T01:11:59.074Z,1016.79
2018-12-27T01:12:59.025Z,1016.80
2018-12-27T01:13:58.998Z,1016.76
2018-12-27T01:14:58.907Z,1016.77
2018-12-27T01:15:58.847Z,1016.75
2018-12-27T01:16:58.797Z,1016.78
2018-12-27T01:17:58.796Z,1016.79
2018-12-27T01:18:58.681Z,1016.76
2018-12-27T01:19:58.651Z,1016.77
2018-12-27T01:20:58.566Z,1016.79
2018-12-27T01:21:58.513Z,1016.78
2018-12-27T01:22:58.447Z,1016.74
2018-12-27T01:23:58.396Z,1016.76
2018-12-27T01:24:58.365Z,1016.73
2018-12-27T01:25:58.281Z,1016.72
2018-12-27T01:26:58.227Z,1016.77
2018-12-27T01:27:58.177Z,1016.76
2018-12-27T01:28:58.112Z,1016.75
2018-12-27T01:29:58.075Z,1016.78
2018-12-27T01:30:58.001Z,1016.77
2018-12-27T01:31:57.942Z,1016.76
2018-12-27T01:32:57.895Z,1016.75
2018-12-27T01:33:57.829Z,1016.80
2018-12-27T01:34:57.795Z,1016.80
2018-12-27T01:35:57.715Z,1016.79
2018-12-27T01:36:57.654Z,1016.81
2018-12-27T01:37:57.600Z,1016.78
2018-12-27T01:38:57.547Z,1016.78
2018-12-27T01:39:57.512Z,1016.81
2018-12-27T01:40:57.431Z,1016.83
2018-12-27T01:41:57.381Z,1016.83
2018-12-27T01:42:57.317Z,1016.82
2018-12-27T01:43:57.260Z,1016.78
2018-12-27T01:44:57.228Z,1016.78
2018-12-27T01:45:57.144Z,1016.81
2018-12-27T01:46:57.092Z,1016.80
2018-12-27T01:47:57.034Z,1016.79
2018-12-27T01:48:56.985Z,1016.75
2018-12-27T01:49:56.940Z,1016.76
2018-12-27T01:50:56.865Z,1016.75
2018-12-27T01:51:56.804Z,1016.75
2018-12-27T01:52:56.752Z,1016.74
2018-12-27T01:53:56.689Z,1016.82
2018-12-27T01:54:56.654Z,1016.77
2018-12-27T01:55:56.578Z,1016.77
2018-12-27T01:56:56.517Z,1016.75
2018-12-27T01:57:56.468Z,1016.75
2018-12-27T01:58:56.420Z,1016.79
2018-12-27T01:59:56.372Z,1016.73
2018-12-27T02:00:56.298Z,1016.72
2018-12-27T02:01:56.237Z,1016.69
2018-12-27T02:02:56.188Z,1016.69
2018-12-27T02:03:56.124Z,1016.65
2018-12-27T02:04:56.088Z,1016.68
2018-12-27T02:05:56.013Z,1016.68
2018-12-27T02:06:55.953Z,1016.64
2018-12-27T02:07:55.895Z,1016.64
2018-12-27T02:08:55.839Z,1016.67
2018-12-27T02:09:55.807Z,1016.65
2018-12-27T02:10:55.723Z,1016.60
2018-12-27T02:11:55.663Z,1016.59
2018-12-27T02:12:55.690Z,1016.60
2018-12-27T02:13:55.556Z,1016.57
2018-12-27T02:14:55.518Z,1016.57
2018-12-27T02:15:55.439Z,1016.56
2018-12-27T02:16:55.386Z,1016.52
2018-12-27T02:17:55.324Z,1016.47
2018-12-27T02:18:55.269Z,1016.49
2018-12-27T02:19:55.239Z,1016.50
2018-12-27T02:20:55.153Z,1016.48
2018-12-27T02:21:55.098Z,1016.46
2018-12-27T02:22:55.042Z,1016.46
2018-12-27T02:23:54.990Z,1016.45
2018-12-27T02:24:54.954Z,1016.43
2018-12-27T02:25:54.896Z,1016.46
2018-12-27T02:26:54.813Z,1016.47
2018-12-27T02:27:54.759Z,1016.43
2018-12-27T02:28:54.702Z,1016.44
2018-12-27T02:29:54.642Z,1016.44
2018-12-27T02:30:54.613Z,1016.43
2018-12-27T02:31:54.534Z,1016.39
2018-12-27T02:32:54.475Z,1016.39
2018-12-27T02:33:54.417Z,1016.39
2018-12-27T02:34:54.362Z,1016.37
2018-12-27T02:35:54.328Z,1016.36
2018-12-27T02:36:54.250Z,1016.36
2018-12-27T02:37:54.187Z,1016.35
2018-12-27T02:38:54.132Z,1016.36
2018-12-27T02:39:54.073Z,1016.30
2018-12-27T02:40:54.043Z,1016.33
2018-12-27T02:41:53.962Z,1016.32
2018-12-27T02:42:53.907Z,1016.32
2018-12-27T02:43:53.847Z,1016.34
2018-12-27T02:44:53.793Z,1016.36
2018-12-27T02:45:53.762Z,1016.35
2018-12-27T02:46:53.673Z,1016.31
2018-12-27T02:47:53.623Z,1016.32
2018-12-27T02:48:53.565Z,1016.30
2018-12-27T02:49:53.507Z,1016.32
2018-12-27T02:50:53.475Z,1016.28
2018-12-27T02:51:53.392Z,1016.28
2018-12-27T02:52:53.341Z,1016.24
2018-12-27T02:53:53.277Z,1016.22
2018-12-27T02:54:53.222Z,1016.21
2018-12-27T02:55:53.190Z,1016.23
2018-12-27T02:56:53.111Z,1016.18
2018-12-27T02:57:53.057Z,1016.20
2018-12-27T02:58:52.997Z,1016.20
2018-12-27T02:59:52.942Z,1016.19
2018-12-27T03:00:52.905Z,1016.23
2018-12-27T03:01:52.825Z,1016.18
2018-12-27T03:02:52.767Z,1016.20
2018-12-27T03:03:52.721Z,1016.16
2018-12-27T03:04:52.735Z,1016.13
2018-12-27T03:05:52.622Z,1016.11
2018-12-27T03:06:52.550Z,1016.11
2018-12-27T03:07:52.487Z,1016.11
2018-12-27T03:08:52.430Z,1016.10
2018-12-27T03:09:52.451Z,1016.06
2018-12-27T03:10:52.339Z,1016.05
2018-12-27T03:11:52.259Z,1016.06
2018-12-27T03:12:52.201Z,1016.01
2018-12-27T03:13:52.148Z,1016.00
2018-12-27T03:14:52.091Z,1016.02
2018-12-27T03:15:52.056Z,1016.00
2018-12-27T03:16:51.980Z,1015.98
2018-12-27T03:17:51.919Z,1015.97
2018-12-27T03:18:51.864Z,1016.02
2018-12-27T03:19:51.809Z,1015.98
2018-12-27T03:20:51.802Z,1015.99
2018-12-27T03:21:51.694Z,1015.92
2018-12-27T03:22:51.672Z,1015.95
2018-12-27T03:23:51.577Z,1015.97
2018-12-27T03:24:51.533Z,1015.92
2018-12-27T03:25:51.466Z,1015.92
2018-12-27T03:26:51.434Z,1015.92
2018-12-27T03:27:51.351Z,1015.88
2018-12-27T03:28:51.290Z,1015.90
2018-12-27T03:29:51.233Z,1015.88
2018-12-27T03:30:51.188Z,1015.84
2018-12-27T03:31:51.148Z,1015.85
2018-12-27T03:32:51.066Z,1015.83
2018-12-27T03:33:52.764Z,1015.78
2018-12-27T03:34:50.952Z,1015.79
2018-12-27T03:35:50.894Z,1015.77
2018-12-27T03:36:50.855Z,1015.76
2018-12-27T03:37:50.779Z,1015.73
2018-12-27T03:38:50.724Z,1015.68
2018-12-27T03:39:50.670Z,1015.66
2018-12-27T03:40:50.612Z,1015.69
2018-12-27T03:41:50.574Z,1015.69
2018-12-27T03:42:50.500Z,1015.69
2018-12-27T03:43:50.440Z,1015.71
2018-12-27T03:44:50.380Z,1015.71
2018-12-27T03:45:50.325Z,1015.70
2018-12-27T03:46:50.290Z,1015.64
2018-12-27T03:47:50.210Z,1015.60
2018-12-27T03:48:50.151Z,1015.60
2018-12-27T03:49:50.099Z,1015.61
2018-12-27T03:50:50.039Z,1015.57
2018-12-27T03:51:50.091Z,1015.56
2018-12-27T03:52:49.942Z,1015.57
2018-12-27T03:53:49.872Z,1015.52
2018-12-27T03:54:49.811Z,1015.50
2018-12-27T03:55:49.756Z,1015.52
2018-12-27T03:56:49.726Z,1015.51
2018-12-27T03:57:49.636Z,1015.51
2018-12-27T03:58:49.584Z,1015.53
2018-12-27T03:59:49.525Z,1015.57
2018-12-27T04:00:49.470Z,1015.50
2018-12-27T04:01:49.440Z,1015.58
2018-12-27T04:02:49.359Z,1015.56
2018-12-27T04:03:49.301Z,1015.53
2018-12-27T04:04:49.242Z,1015.51
2018-12-27T04:05:49.185Z,1015.53
2018-12-27T04:06:49.154Z,1015.50
2018-12-27T04:07:49.070Z,1015.49
2018-12-27T04:08:49.014Z,1015.52
2018-12-27T04:09:48.963Z,1015.50
2018-12-27T04:10:48.909Z,1015.49
2018-12-27T04:11:48.867Z,1015.50
2018-12-27T04:12:48.785Z,1015.55
2018-12-27T04:13:48.729Z,1015.57
2018-12-27T04:14:48.679Z,1015.57
2018-12-27T04:15:48.617Z,1015.55
2018-12-27T04:16:48.582Z,1015.53
2018-12-27T04:17:48.502Z,1015.48
2018-12-27T04:18:48.441Z,1015.44
2018-12-27T04:19:48.382Z,1015.42
2018-12-27T04:20:48.324Z,1015.47
2018-12-27T04:21:48.295Z,1015.51
2018-12-27T04:22:48.208Z,1015.52
2018-12-27T04:23:48.158Z,1015.50
2018-12-27T04:24:48.100Z,1015.45
2018-12-27T04:25:48.042Z,1015.45
2018-12-27T04:26:48.016Z,1015.44
2018-12-27T04:27:47.926Z,1015.46
2018-12-27T04:28:47.864Z,1015.40
2018-12-27T04:29:47.806Z,1015.44
2018-12-27T04:30:47.756Z,1015.43
2018-12-27T04:31:47.716Z,1015.43
2018-12-27T04:32:47.637Z,1015.49
2018-12-27T04:33:47.582Z,1015.48
2018-12-27T04:34:47.526Z,1015.49
2018-12-27T04:35:47.472Z,1015.49
2018-12-27T04:36:47.432Z,1015.57
2018-12-27T04:37:47.357Z,1015.48
2018-12-27T04:38:47.298Z,1015.49
2018-12-27T04:39:47.244Z,1015.49
2018-12-27T04:40:47.184Z,1015.52
2018-12-27T04:41:47.162Z,1015.51
2018-12-27T04:42:47.068Z,1015.52
2018-12-27T04:43:47.007Z,1015.49
2018-12-27T04:44:46.947Z,1015.46
2018-12-27T04:45:46.896Z,1015.46
2018-12-27T04:46:46.838Z,1015.42
2018-12-27T04:47:46.804Z,1015.47
2018-12-27T04:48:46.719Z,1015.45
2018-12-27T04:49:46.673Z,1015.46
2018-12-27T04:50:46.607Z,1015.44
2018-12-27T04:51:46.552Z,1015.45
2018-12-27T04:52:46.522Z,1015.44
2018-12-27T04:53:46.437Z,1015.46
2018-12-27T04:54:46.374Z,1015.46
2018-12-27T04:55:46.314Z,1015.46
2018-12-27T04:56:46.258Z,1015.48
2018-12-27T04:57:46.225Z,1015.49
2018-12-27T04:58:46.144Z,1015.51
2018-12-27T04:59:46.084Z,1015.48
2018-12-27T05:00:46.029Z,1015.45
2018-12-27T05:01:45.978Z,1015.45
2018-12-27T05:02:45.944Z,1015.46
2018-12-27T05:03:45.857Z,1015.43
2018-12-27T05:04:45.799Z,1015.40
2018-12-27T05:05:45.757Z,1015.38
2018-12-27T05:06:45.688Z,1015.44
2018-12-27T05:07:45.660Z,1015.46
2018-12-27T05:08:45.575Z,1015.45
2018-12-27T05:09:45.511Z,1015.40
2018-12-27T05:10:45.459Z,1015.42
2018-12-27T05:11:45.396Z,1015.41
2018-12-27T05:12:45.367Z,1015.41
2018-12-27T05:13:45.287Z,1015.46
2018-12-27T05:14:45.225Z,1015.46
2018-12-27T05:15:45.168Z,1015.46
2018-12-27T05:16:45.111Z,1015.41
2018-12-27T05:17:45.075Z,1015.43
2018-12-27T05:18:45.002Z,1015.44
2018-12-27T05:19:44.938Z,1015.39
2018-12-27T05:20:44.883Z,1015.40
2018-12-27T05:21:44.828Z,1015.39
2018-12-27T05:22:44.790Z,1015.38
2018-12-27T05:23:44.706Z,1015.41
2018-12-27T05:24:44.653Z,1015.40
2018-12-27T05:25:44.600Z,1015.36
2018-12-27T05:26:44.537Z,1015.41
2018-12-27T05:27:44.506Z,1015.34
2018-12-27T05:28:44.425Z,1015.37
2018-12-27T05:29:44.358Z,1015.39
2018-12-27T05:30:44.306Z,1015.43
2018-12-27T05:31:44.247Z,1015.41
2018-12-27T05:32:44.224Z,1015.44
2018-12-27T05:33:44.136Z,1015.45
2018-12-27T05:34:44.073Z,1015.47
2018-12-27T05:35:44.019Z,1015.44
2018-12-27T05:36:43.956Z,1015.47
2018-12-27T05:37:43.903Z,1015.47
2018-12-27T05:38:43.873Z,1015.45
2018-12-27T05:39:43.789Z,1015.47
2018-12-27T05:40:43.735Z,1015.53
2018-12-27T05:41:43.669Z,1015.50
2018-12-27T05:42:43.620Z,1015.46
2018-12-27T05:43:43.586Z,1015.46
2018-12-27T05:44:43.502Z,1015.50
2018-12-27T05:45:43.447Z,1015.45
2018-12-27T05:46:43.380Z,1015.47
2018-12-27T05:47:43.329Z,1015.52
2018-12-27T05:48:43.293Z,1015.47
2018-12-27T05:49:43.211Z,1015.52
2018-12-27T05:50:43.158Z,1015.53
2018-12-27T05:51:43.097Z,1015.53
2018-12-27T05:52:43.044Z,1015.49
2018-12-27T05:53:43.003Z,1015.50
2018-12-27T05:54:42.925Z,1015.52
2018-12-27T05:55:42.867Z,1015.52
2018-12-27T05:56:42.807Z,1015.53
2018-12-27T05:57:42.755Z,1015.55
2018-12-27T05:58:42.724Z,1015.60
2018-12-27T05:59:42.636Z,1015.62
2018-12-27T06:00:42.581Z,1015.66
2018-12-27T06:01:42.522Z,1015.65
2018-12-27T06:02:42.459Z,1015.69
2018-12-27T06:03:42.434Z,1015.68
2018-12-27T06:04:42.348Z,1015.72
2018-12-27T06:05:42.304Z,1015.77
2018-12-27T06:06:42.234Z,1015.77
2018-12-27T06:07:42.181Z,1015.75
2018-12-27T06:08:42.142Z,1015.75
2018-12-27T06:09:42.062Z,1015.75
2018-12-27T06:10:42.004Z,1015.73
2018-12-27T06:11:41.943Z,1015.79
2018-12-27T06:12:41.892Z,1015.77
2018-12-27T06:13:41.852Z,1015.75
2018-12-27T06:14:41.773Z,1015.77
2018-12-27T06:15:41.713Z,1015.77
2018-12-27T06:16:41.658Z,1015.78
2018-12-27T06:17:41.601Z,1015.79
2018-12-27T06:18:41.590Z,1015.78
2018-12-27T06:19:41.484Z,1015.79
2018-12-27T06:20:41.496Z,1015.76
2018-12-27T06:21:41.373Z,1015.78
2018-12-27T06:22:41.318Z,1015.75
2018-12-27T06:23:41.252Z,1015.73
2018-12-27T06:24:41.220Z,1015.76
2018-12-27T06:25:41.140Z,1015.76
2018-12-27T06:26:41.084Z,1015.76
2018-12-27T06:27:41.025Z,1015.85
2018-12-27T06:28:40.966Z,1015.81
2018-12-27T06:29:40.924Z,1015.82
2018-12-27T06:30:40.854Z,1015.82
2018-12-27T06:31:40.796Z,1015.80
2018-12-27T06:32:40.740Z,1015.83
2018-12-27T06:33:40.681Z,1015.80
2018-12-27T06:34:41.516Z,1015.83
2018-12-27T06:35:40.570Z,1015.76
2018-12-27T06:36:40.507Z,1015.80
2018-12-27T06:37:40.454Z,1015.82
2018-12-27T06:38:40.389Z,1015.78
2018-12-27T06:39:40.355Z,1015.81
2018-12-27T06:40:40.282Z,1015.82
2018-12-27T06:41:40.217Z,1015.81
2018-12-27T06:42:40.162Z,1015.86
2018-12-27T06:43:40.113Z,1015.78
2018-12-27T06:44:40.078Z,1015.79
2018-12-27T06:45:39.984Z,1015.82
2018-12-27T06:46:39.937Z,1015.84
2018-12-27T06:47:39.873Z,1015.78
2018-12-27T06:48:39.817Z,1015.82
2018-12-27T06:49:39.791Z,1015.82
2018-12-27T06:50:39.699Z,1015.82
2018-12-27T06:51:39.643Z,1015.79
2018-12-27T06:52:39.587Z,1015.79
2018-12-27T06:53:39.529Z,1015.79
2018-12-27T06:54:39.499Z,1015.76
2018-12-27T06:55:39.412Z,1015.75
2018-12-27T06:56:39.359Z,1015.75
2018-12-27T06:57:39.305Z,1015.74
2018-12-27T06:58:39.239Z,1015.76
2018-12-27T06:59:39.204Z,1015.76
2018-12-27T07:00:39.124Z,1015.76
2018-12-27T07:01:39.073Z,1015.76
2018-12-27T07:02:39.011Z,1015.77
2018-12-27T07:03:38.956Z,1015.73
2018-12-27T07:04:38.924Z,1015.74
2018-12-27T07:05:38.843Z,1015.78
2018-12-27T07:06:38.781Z,1015.79
2018-12-27T07:07:38.731Z,1015.78
2018-12-27T07:08:38.672Z,1015.77
2018-12-27T07:09:38.631Z,1015.83
2018-12-27T07:10:38.556Z,1015.83
2018-12-27T07:11:38.507Z,1015.84
2018-12-27T07:12:38.440Z,1015.83
2018-12-27T07:13:38.380Z,1015.86
2018-12-27T07:14:38.354Z,1015.85
2018-12-27T07:15:38.262Z,1015.84
2018-12-27T07:16:38.208Z,1015.89
2018-12-27T07:17:38.146Z,1015.83
2018-12-27T07:18:38.091Z,1015.89
2018-12-27T07:19:38.032Z,1015.89
2018-12-27T07:20:38.003Z,1015.88
2018-12-27T07:21:37.921Z,1015.86
2018-12-27T07:22:37.863Z,1015.84
2018-12-27T07:23:37.806Z,1015.84
2018-12-27T07:24:37.748Z,1015.85
2018-12-27T07:25:37.712Z,1015.89
2018-12-27T07:26:37.628Z,1015.85
2018-12-27T07:27:37.579Z,1015.91
2018-12-27T07:28:37.519Z,1015.90
2018-12-27T07:29:37.466Z,1015.92
2018-12-27T07:30:37.422Z,1015.89
2018-12-27T07:31:37.348Z,1015.93
2018-12-27T07:32:37.284Z,1015.90
2018-12-27T07:33:37.228Z,1015.89
2018-12-27T07:34:37.168Z,1015.89
2018-12-27T07:35:37.135Z,1015.92
2018-12-27T07:36:37.056Z,1015.97
2018-12-27T07:37:37.002Z,1015.96
2018-12-27T07:38:36.941Z,1015.96
2018-12-27T07:39:36.892Z,1015.95
2018-12-27T07:40:36.848Z,1015.98
2018-12-27T07:41:36.769Z,1015.98
2018-12-27T07:42:36.709Z,1015.98
2018-12-27T07:43:36.650Z,1015.97
2018-12-27T07:44:36.599Z,1015.95
2018-12-27T07:45:36.565Z,1015.95
2018-12-27T07:46:36.483Z,1015.99
2018-12-27T07:47:36.417Z,1015.93
2018-12-27T07:48:36.365Z,1015.94
2018-12-27T07:49:36.305Z,1015.98
2018-12-27T07:50:36.274Z,1015.97
2018-12-27T07:51:36.187Z,1015.97
2018-12-27T07:52:36.134Z,1015.97
2018-12-27T07:53:36.084Z,1015.98
2018-12-27T07:54:36.016Z,1015.95
2018-12-27T07:55:35.991Z,1015.90
2018-12-27T07:56:35.910Z,1015.95
2018-12-27T07:57:35.846Z,1015.92
2018-12-27T07:58:35.790Z,1015.91
2018-12-27T07:59:35.728Z,1015.93
2018-12-27T08:00:35.706Z,1015.92
2018-12-27T08:01:35.633Z,1015.91
2018-12-27T08:02:35.571Z,1015.91
2018-12-27T08:03:35.501Z,1015.93
2018-12-27T08:04:35.446Z,1015.93
2018-12-27T08:05:35.416Z,1015.91
2018-12-27T08:06:35.330Z,1015.95
2018-12-27T08:07:35.281Z,1015.91
2018-12-27T08:08:35.217Z,1015.91
2018-12-27T08:09:35.153Z,1015.87
2018-12-27T08:12:06.694Z,1015.87
2018-12-27T08:13:06.609Z,1015.90
2018-12-27T08:14:06.552Z,1015.91
2018-12-27T08:15:06.500Z,1015.94
2018-12-27T08:16:06.465Z,1015.91
2018-12-27T08:17:06.379Z,1015.92
2018-12-27T08:18:06.322Z,1015.88
2018-12-27T08:19:06.271Z,1015.88
2018-12-27T08:20:06.211Z,1015.87
2018-12-27T08:21:06.173Z,1015.80
2018-12-27T08:22:06.094Z,1015.82
2018-12-27T08:23:06.039Z,1015.79
2018-12-27T08:24:05.981Z,1015.80
2018-12-27T08:25:05.922Z,1015.77
2018-12-27T08:26:05.887Z,1015.71
2018-12-27T08:27:05.807Z,1015.68
2018-12-27T08:28:05.749Z,1015.68
2018-12-27T08:29:05.689Z,1015.67
2018-12-27T08:30:05.633Z,1015.67
2018-12-27T08:31:05.621Z,1015.69
2018-12-27T08:32:05.522Z,1015.62
2018-12-27T08:33:05.463Z,1015.63
2018-12-27T08:34:05.400Z,1015.62
2018-12-27T08:35:11.466Z,1015.63
2018-12-27T08:36:05.289Z,1015.66
2018-12-27T08:37:05.365Z,1015.69
2018-12-27T08:38:05.174Z,1015.63
2018-12-27T08:39:05.121Z,1015.62
2018-12-27T08:40:05.059Z,1015.59
2018-12-27T08:41:05.007Z,1015.59
2018-12-27T08:42:04.974Z,1015.58
2018-12-27T08:43:04.890Z,1015.55
2018-12-27T08:44:04.837Z,1015.54
2018-12-27T08:45:04.775Z,1015.54
2018-12-27T08:46:04.723Z,1015.56
2018-12-27T08:47:04.687Z,1015.58
2018-12-27T08:48:04.610Z,1015.54
2018-12-27T08:49:04.549Z,1015.55
2018-12-27T08:50:04.486Z,1015.58
2018-12-27T08:51:04.435Z,1015.54
2018-12-27T08:52:04.396Z,1015.56
2018-12-27T08:53:04.317Z,1015.55
2018-12-27T08:54:04.260Z,1015.52
2018-12-27T08:55:04.201Z,1015.53
2018-12-27T08:56:04.145Z,1015.49
2018-12-27T08:57:04.110Z,1015.51
2018-12-27T08:58:04.035Z,1015.51
2018-12-27T08:59:03.971Z,1015.52
2018-12-27T09:00:03.918Z,1015.48
2018-12-27T09:01:03.858Z,1015.52
2018-12-27T09:02:03.825Z,1015.55
2018-12-27T09:03:03.748Z,1015.54
2018-12-27T09:04:03.682Z,1015.59
2018-12-27T09:05:03.630Z,1015.55
2018-12-27T09:06:03.573Z,1015.53
2018-12-27T09:07:04.256Z,1015.53
2018-12-27T09:08:03.460Z,1015.54
2018-12-27T09:09:03.401Z,1015.53
2018-12-27T09:10:03.343Z,1015.52
2018-12-27T09:11:03.286Z,1015.49
2018-12-27T09:12:03.255Z,1015.49
2018-12-27T09:13:03.171Z,1015.45
2018-12-27T09:14:03.116Z,1015.42
2018-12-27T09:15:03.063Z,1015.47
2018-12-27T09:16:03.001Z,1015.47
2018-12-27T09:17:02.968Z,1015.47
2018-12-27T09:18:02.886Z,1015.42
2018-12-27T09:19:02.899Z,1015.42
2018-12-27T09:20:02.772Z,1015.45
2018-12-27T09:21:02.738Z,1015.41
2018-12-27T09:22:02.676Z,1015.44
2018-12-27T09:23:02.601Z,1015.45
2018-12-27T09:24:02.534Z,1015.46
2018-12-27T09:25:02.486Z,1015.45
2018-12-27T09:26:02.433Z,1015.46
2018-12-27T09:27:02.400Z,1015.48
2018-12-27T09:28:02.316Z,1015.48
2018-12-27T09:29:02.256Z,1015.50
2018-12-27T09:30:02.202Z,1015.48
2018-12-27T09:31:02.156Z,1015.50
2018-12-27T09:32:02.115Z,1015.50
2018-12-27T09:33:02.031Z,1015.45
2018-12-27T09:34:01.978Z,1015.49
2018-12-27T09:35:01.920Z,1015.50
2018-12-27T09:36:01.864Z,1015.49
2018-12-27T09:37:01.849Z,1015.46
2018-12-27T09:38:01.747Z,1015.47
2018-12-27T09:39:01.691Z,1015.50
2018-12-27T09:40:01.634Z,1015.49
2018-12-27T09:41:01.576Z,1015.48
2018-12-27T09:42:01.520Z,1015.44
2018-12-27T09:43:01.487Z,1015.46
2018-12-27T09:44:01.405Z,1015.45
2018-12-27T09:45:01.350Z,1015.48
2018-12-27T09:46:01.279Z,1015.50
2018-12-27T09:47:01.248Z,1015.44
2018-12-27T09:48:01.207Z,1015.47
2018-12-27T09:49:01.120Z,1015.46
2018-12-27T09:50:01.066Z,1015.44
2018-12-27T09:51:01.013Z,1015.42
2018-12-27T09:52:02.155Z,1015.38
2018-12-27T09:53:00.923Z,1015.37
2018-12-27T09:54:00.835Z,1015.34
2018-12-27T09:55:00.782Z,1015.37
2018-12-27T09:56:00.726Z,1015.32
2018-12-27T09:57:00.664Z,1015.30
2018-12-27T09:58:00.633Z,1015.29
2018-12-27T09:59:00.559Z,1015.29
2018-12-27T10:00:00.499Z,1015.26
2018-12-27T10:01:00.435Z,1015.25
2018-12-27T10:02:00.380Z,1015.26
2018-12-27T10:03:00.351Z,1015.25
2018-12-27T10:04:00.265Z,1015.25
2018-12-27T10:05:00.210Z,1015.23
2018-12-27T10:06:00.155Z,1015.22
2018-12-27T10:07:00.125Z,1015.22
2018-12-27T10:08:00.063Z,1015.25
2018-12-27T10:08:59.986Z,1015.19
2018-12-27T10:09:59.925Z,1015.24
2018-12-27T10:10:59.874Z,1015.17
2018-12-27T10:11:59.815Z,1015.21
2018-12-27T10:12:59.787Z,1015.18
2018-12-27T10:13:59.699Z,1015.18
2018-12-27T10:14:59.645Z,1015.13
2018-12-27T10:15:59.592Z,1015.12
2018-12-27T10:16:59.530Z,1015.11
2018-12-27T10:17:59.497Z,1015.11
2018-12-27T10:18:59.415Z,1015.12
2018-12-27T10:19:59.359Z,1015.11
2018-12-27T10:20:59.303Z,1015.07
2018-12-27T10:21:59.253Z,1015.07
2018-12-27T10:22:59.229Z,1015.05
2018-12-27T10:23:59.138Z,1015.03
2018-12-27T10:24:59.082Z,1015.03
2018-12-27T10:25:59.021Z,1015.02
2018-12-27T10:26:58.963Z,1015.02
2018-12-27T10:27:58.909Z,1015.04
2018-12-27T10:28:58.877Z,1015.07
2018-12-27T10:29:58.796Z,1015.04
2018-12-27T10:30:59.875Z,1015.03
2018-12-27T10:31:58.698Z,1015.05
2018-12-27T10:32:58.625Z,1015.05
2018-12-27T10:33:58.592Z,1015.03
2018-12-27T10:34:58.511Z,1015.01
2018-12-27T10:35:58.454Z,1015.01
2018-12-27T10:36:58.398Z,1014.98
2018-12-27T10:37:58.342Z,1014.96
2018-12-27T10:38:58.307Z,1015.00
2018-12-27T10:39:58.228Z,1014.96
2018-12-27T10:40:58.172Z,1015.00
2018-12-27T10:41:58.112Z,1014.97
2018-12-27T10:42:58.056Z,1014.98
2018-12-27T10:43:58.031Z,1014.99
2018-12-27T10:44:57.946Z,1014.97
2018-12-27T10:45:57.892Z,1014.98
2018-12-27T10:46:57.843Z,1015.02
2018-12-27T10:47:57.842Z,1014.93
2018-12-27T10:48:57.746Z,1014.94
2018-12-27T10:49:57.676Z,1014.92
2018-12-27T10:50:57.608Z,1014.92
2018-12-27T10:51:57.550Z,1014.89
2018-12-27T10:52:57.487Z,1014.87
2018-12-27T10:53:57.464Z,1014.92
2018-12-27T10:54:57.382Z,1014.86
2018-12-27T10:55:57.324Z,1014.91
2018-12-27T10:56:57.266Z,1014.91
2018-12-27T10:57:57.210Z,1014.89
2018-12-27T10:58:57.178Z,1014.91
2018-12-27T10:59:57.102Z,1014.85
2018-12-27T11:00:57.039Z,1014.85
2018-12-27T11:01:56.993Z,1014.82
2018-12-27T11:02:56.928Z,1014.80
2018-12-27T11:03:56.897Z,1014.72
2018-12-27T11:04:57.580Z,1014.69
2018-12-27T11:05:56.759Z,1014.68
2018-12-27T11:06:56.703Z,1014.64
2018-12-27T11:07:56.657Z,1014.63
2018-12-27T11:08:56.616Z,1014.58
2018-12-27T11:09:56.532Z,1014.59
2018-12-27T11:10:56.478Z,1014.57
2018-12-27T11:11:56.418Z,1014.57
2018-12-27T11:12:56.369Z,1014.58
2018-12-27T11:13:56.341Z,1014.53
2018-12-27T11:14:56.258Z,1014.54
2018-12-27T11:15:56.201Z,1014.54
2018-12-27T11:16:56.146Z,1014.53
2018-12-27T11:17:56.118Z,1014.55
2018-12-27T11:18:56.076Z,1014.55
2018-12-27T11:19:55.975Z,1014.51
2018-12-27T11:20:55.919Z,1014.55
2018-12-27T11:21:55.865Z,1014.51
2018-12-27T11:22:55.809Z,1014.45
2018-12-27T11:23:55.754Z,1014.47
2018-12-27T11:24:55.718Z,1014.45
2018-12-27T11:25:55.640Z,1014.43
2018-12-27T11:26:55.580Z,1014.45
2018-12-27T11:27:55.541Z,1014.45
2018-12-27T11:28:55.472Z,1014.44
2018-12-27T11:29:55.460Z,1014.42
2018-12-27T11:30:55.364Z,1014.41
2018-12-27T11:31:55.306Z,1014.42
2018-12-27T11:32:55.251Z,1014.43
2018-12-27T11:33:55.196Z,1014.42
2018-12-27T11:34:55.159Z,1014.39
2018-12-27T11:35:55.921Z,1014.40
2018-12-27T11:36:55.022Z,1014.39
2018-12-27T11:37:54.986Z,1014.36
2018-12-27T11:38:55.015Z,1014.37
2018-12-27T11:39:54.890Z,1014.37
2018-12-27T11:40:54.809Z,1014.32
2018-12-27T11:41:54.752Z,1014.30
2018-12-27T11:42:54.696Z,1014.23
2018-12-27T11:43:54.637Z,1014.23
2018-12-27T11:44:54.610Z,1014.20
2018-12-27T11:45:54.528Z,1014.24
2018-12-27T11:46:54.470Z,1014.18
2018-12-27T11:47:54.420Z,1014.21
2018-12-27T11:48:54.357Z,1014.17
2018-12-27T11:49:54.329Z,1014.19
2018-12-27T11:50:54.255Z,1014.19
2018-12-27T11:51:54.204Z,1014.18
2018-12-27T11:52:54.146Z,1014.15
2018-12-27T11:53:54.084Z,1014.14
2018-12-27T11:54:54.056Z,1014.12
2018-12-27T11:55:53.983Z,1014.11
2018-12-27T11:56:54.005Z,1014.13
2018-12-27T11:57:53.868Z,1014.10
2018-12-27T11:58:53.796Z,1014.08
2018-12-27T11:59:53.779Z,1014.08
2018-12-27T12:00:53.699Z,1014.05
2018-12-27T12:01:53.644Z,1014.07
2018-12-27T12:02:53.590Z,1014.08
2018-12-27T12:03:53.529Z,1014.06
2018-12-27T12:04:53.501Z,1014.08
2018-12-27T12:05:53.422Z,1014.07